zaterdag 29 februari 2020 | Home | Bestenlijsten | Bestenlijsten NL | Calculators | Nieuws | Records | Uitslagen | Videos | Wedstrijden | VZA Ranglijsten | Weer |
 
Recent nieuws meer nieuws
28-02: Boris de Bruijn laat prima indruk na in Axel
18-01: Nog dieper graven over het meten van afstand met GPS door deelnemers
17-01: Voor de 9e keer Kapellecross
03-01: Nogmaals over vermeende PR's en onzorgvuldig gemeten afstanden
28-12: Wel of geen PR op Tien Mijl in Barendrecht?
18-12: De hardloopnieuwsresten van 2019
Wedstrijdagenda meer wedstrijden
za 29-02: Scheldeloop Terneuzen
za 29-02: 31e Kustcross Vlissingen
za 07-03: Krokusloop Hulst
za 07-03: 53e Massaloop Oostkapelle
zo 08-03: 45e CPC Loop Den Haag
zo 08-03: 4e Natuurloop Cadzand-Bad
za 14-03: 48e Pannekoekloop Westenschouwen
zo 15-03: 27e Zwinstedenloop Sluis
zo 15-03: 32e Parelloop Brunssum
za 21-03: Corn Boys Loop Sas van Gent
za 21-03: 9e Ronde van BRU Bruinisse
zo 22-03: 60 km van Walcheren Vlissingen
za 28-03: 25 km van Hulst
zo 29-03: 15e Venloop
za 04-04: 14e Oosterscheldeloop Goes
Recente uitslagen
  meer uitslagen
zo 23-02: 9e Kapellecross Kapelle-Biezelinge
zo 23-02: Bosbokkentrail Westenschouwen
zo 23-02: 3e Natuurloop Cadzand-Bad
za 22-02: Halve van Axel (248)
za 15-02: 15e Zwaarste 10 van Zeeland Westenschouwen (227)
za 08-02: Erpelkappersloop Axel (140)
za 08-02: Grevelingen cross Bruinisse (115)
zo 02-02: 29e Midwinter Halve Marathon Cadzand (391)
za 01-02: 22e Rammekensloop Ritthem (267)
za 25-01: 6e Scheldesport cross Westdorpe (85)
za 18-01: Dow trimloop Terneuzen (88)
 
Zoek tenminste met 3 tekens van wedstrijd, datum, plaats of atleet

Berlaerloop

Koewacht, zaterdag 2 februari 2019 - Organisatie: VV Koewacht
12.5 km
PltsNaam
Tijdkm/umin/kmm/secgap
1  Joris ZamanNieuw-Namen46.28minM40   16.141  3:434.48-
2  Heather DobbelaerSint-Niklaas52.34minMse   14.268  4:123.96+6:06
3  Mike CornelisTemse53.15minMse   14.085  4:163.91+6:47
4  Jos van GrembergheKoewacht54.36minM60   13.736  4:223.82+8:08
5  Chris SchelkensDendermonde54.44minM55   13.703  4:233.81+8:16
6  Koen van GijselMoerbeke55.42minM45   13.465  4:273.74+9:14
7  Stefaan de MaeyerNieuwkerken55.55minM45   13.413  4:283.73+9:27
8  Michael VerstraetenMoerbeke56.19minMse   13.318  4:303.70+9:51
9  Ivan de KeiserWaasmunster56.27minM55   13.286  4:313.69+9:59
10  Gian ScheeleZaamslag57.43minMse   12.995  4:373.61+11:15
11  Marco van der SijptTilburg59.02minM45   12.705  4:433.53+12:34
12  Frans VerwilligenHulst1.00.15minM60   12.448  4:493.46+13:47
13  Luc KusseneersRumst1.00.36minM60   12.376  4:513.44+14:08
14  John VetteTerneuzen1.00.38minM55   12.369  4:513.44+14:10
15  Bart van RemoorteleKoewacht1.02.39minMse   11.971  5:013.33+16:11
16  Carmen BogaertStekene1.03.30minV45   11.811  5:053.28+17:02
17  Willem van der HeydenKieldrecht1.03.39minM65   11.783  5:063.27+17:11
18  Michel FieretTerneuzen1.03.43minM45   11.771  5:063.27+17:15
19  Kevin KoekkoekKoewacht1.04.55minMse   11.553  5:123.21+18:27
20  Bram van der SijptGroningen1.05.14minMse   11.497  5:133.19+18:46
21  Milan de VosKoewacht1.05.16minMse   11.491  5:133.19+18:48
22  Arjan KestelooKoewacht1.05.48minM40   11.398  5:163.17+19:20
23  Marilyn WuytackMoerbeke1.06.21minVse   11.304  5:183.14+19:53
24  Helmut VanderlindenKoewacht1.06.23minM40   11.298  5:193.14+19:55
25  Werner StallaartCape Town1.07.04minM45   11.183  5:223.11+20:36
26  Yves BrackeZelzate1.07.55minM40   11.043  5:263.07+21:27
27  Shana de MeijerZelzate1.07.59minVse   11.032  5:263.06+21:31
28  Mieke BooneOosteeklo1.08.01minV35   11.027  5:263.06+21:33
29  Tima AchelhiAntwerpen1.08.12minVse   10.997  5:273.05+21:44
30  Kristel de MaeyerDeurne1.08.17minV40   10.984  5:283.05+21:49
31  Ludwig van GeyteZele1.09.30minM60   10.791  5:343.00+23:02
32  Denny BuysroggeKoewacht1.09.58minM40   10.719  5:362.98+23:30
33  Ko de KoeijerZaamslag1.10.15minM65   10.676  5:372.97+23:47
34  Ronald BreepoelSluiskil1.10.18minM55   10.669  5:372.96+23:50
35  Kim de KoningKoewacht1.11.38minVse   10.470  5:442.91+25:10
36  Ruud MartensKoewacht1.11.40minMse   10.465  5:442.91+25:12
37  Catelijne BroosKoewacht1.11.43minV40   10.458  5:442.90+25:15
38  Jo GoubertDendermonde1.12.26minM55   10.354  5:482.88+25:58
39  Willy MerckxStekene1.14.26minM65   10.076  5:572.80+27:58
40  Lieve de WitteDendermonde1.14.38minV55   10.049  5:582.79+28:10
41  Kris de VosKoewacht1.16.23minM45   9.819  6:072.73+29:55
42  Eddy van BovenSchoonaarde1.16.50minM60   9.761  6:092.71+30:22
43  Dominique de MeySint-Niklaas1.18.20minV55   9.574  6:162.66+31:52
44  Romain BolssensKieldrecht1.18.33minM60   9.548  6:172.65+32:05
45  Frans VogelMiddelburg1.20.54minM50   9.271  6:282.58+34:26
46  John JansenKoewacht1.22.35minM40   9.082  6:362.52+36:07
47  Nadine CoenenKoewacht1.22.38minV40   9.076  6:372.52+36:10
48  Pieter HollaertKoewacht1.22.42minMse   9.069  6:372.52+36:14
Mannen: 37 (77.08%) => M40=6 - M45=6 - M50=1 - M55=5 - M60=6 - M65=3 - Mse=10
Vrouwen: 11 (22.92%) => V35=1 - V40=3 - V45=1 - V55=2 - Vse=4

Overzicht Top3, winnares en aantal deelnemers van aanwezige edities

JaarWinnaarTijd2eTijd 3eTijdWinnaresTijd#

12.45 km

2020Ruben Martens43:18Liam de Mey44:26Crum van der Linden45:02Sharon Bogaert53:4946

12.5 km

2019Joris Zaman46:28Heather Dobbelaer52:34Mike Cornelis53:15Carmen Bogaert1:03:3048

14.4 km

2017Cedric van de Putte48:52Jente Samson51:36Liam de Mey52:42Kristel de Maeyer1:16:4635
2016Yves Depoorter52:34Jente Samson52:45Stijn Vermeersch52:47Astrid Verhage1:05:3850
7.2 km
PltsNaam
Tijdkm/umin/kmm/secgap
1  Ruben MartensKoewacht24.27minMse   17.669  3:244.91-
2  Steven VerniersEvergem26.32minM40   16.281  3:414.52+2:05
3  Kevin DavidHulst29.20minMse   14.727  4:044.09+4:53
4  Noah RoelsHulst30.07minMse   14.344  4:113.98+5:40
5  Huub BeelenGoes32.29minM60   13.299  4:313.69+8:02
6  Veerle van RaemdonckTemse32.50minVse   13.157  4:343.65+8:23
7  Wout RozijnKoewacht33.40minMse   12.832  4:413.56+9:13
8  Mario SaerensLokeren34.10minM45   12.644  4:453.51+9:43
9  Patrick RoosenboomZele34.59minM50   12.349  4:523.43+10:32
10  Marc GorisVosselaar36.16minM50   11.912  5:023.31+11:49
11  Leo KaijserTerneuzen36.49minM55   11.734  5:073.26+12:22
12  Bart de ClerckVogelwaarde37.02minMse   11.665  5:093.24+12:35
13  Veerle GeysenKoewacht37.16minV35   11.592  5:113.22+12:49
14  Kevin WillemsBrugge37.53minMse   11.403  5:163.17+13:26
15  Lauran van de DriesKloosterzande38.15minM60   11.294  5:193.14+13:48
16  Reggie BunSint Jansteen38.20minM50   11.270  5:193.13+13:53
17  Ria ClijmansVosselaar38.59minV50   11.082  5:253.08+14:32
18  Luc DhontZaffelare39.13minM55   11.016  5:273.06+14:46
19  Didier van NieuwenhuyzeAssenede39.16minM50   11.002  5:273.06+14:49
20  Johan de ZeeuwAxel42.19minM55   10.209  5:532.84+17:52
21  Marian van VorenTerneuzen42.27minV60   10.177  5:542.83+18:00
22  Rudy van de VeldeWachtebeke42.40minM55   10.125  5:562.81+18:13
23  Tessa van HoveKoewacht43.12minVse   10.000  6:002.78+18:45
24  Brigitte de VreezeBeveren44.54minV55   9.621  6:142.67+20:27
25  Lies WindeijKoewacht45.43minV40   9.450  6:212.62+21:16
26  Ine de DeyneKemzeke45.57minV65   9.402  6:232.61+21:30
27  Antoine MathysDe Pinte47.29minM65   9.098  6:362.53+23:02
28  Jacky DoomsSluiskil47.42minM55   9.057  6:382.52+23:15
29  Lidy JonkerTerneuzen47.44minV50   9.050  6:382.51+23:17
30  Nikki RoelsHulst47.51minVse   9.028  6:392.51+23:24
31  Aime SamsonSint-Pauwels53.38minM65   8.055  7:272.24+29:11
32  Saskie KesterlooKoewacht53.49minV45   8.027  7:282.23+29:22
33  Greta de VijlderSint-Gillis-Waas59.49minV70   7.222  8:182.01+35:22
Mannen: 21 (63.64%) => M40=1 - M45=1 - M50=4 - M55=5 - M60=2 - M65=2 - Mse=6
Vrouwen: 12 (36.36%) => V35=1 - V40=1 - V45=1 - V50=2 - V55=1 - V60=1 - V65=1 - V70=1 - Vse=3

Snelheid en tempo zijn berekend op de vermelde afstand. Bij een onjuiste afstand wijken deze uiteraard af!

Fouten melden via info@atletiekzeeland.nl Categorie fout? Mail dan geboortedatum. (geldt alleen voor Zeeuwen)

De server had 0.155 seconden nodig om deze lijst met 81 prestaties samen te stellen.

Terug naar boven


 
Recente Zeeuwse prestaties meer prestaties
23-02: NK indoor Senioren Apeldoorn (1)
3000 m Marijke de Visser (PR 9.34.73)9.52.78  Vse
22-02: BK indoor studenten Gent (2)
1500 m Wouter Verstraate (PR 4.09.34)4.12.05  Mse
800 m Jasper Zuidhof (debuut)2.02.08  Mse
15-02: NK indoor A/B-junioren Apeldoorn (2)
3000 m Bezuayehu Petersen (PR)9.01.49  JoA
3000 m Bereket Petersen (PR 8.53.28)9.06.46  JoA
26-01: Indoormeeting Gent (2)
19-01: Kievitloop Bergen op Zoom (11)
19-01: Marathon Funchal (3)
12-01: 48e Halve van Egmond  (21)
Atletiek Zeeland © 2020